Time;durP1;ratioP1;P1;durP2;ratioP2;P2;SDS_P1;SDS_P2;PMS_P1;PMS_P2;Temp;Humidity;BMP_temperature;BMP_pressure;BME280_temperature;BME280_humidity;BME280_pressure;Samples;Min_cycle;Max_cycle;Signal;HPM_P1;HPM_P2
2023/10/08 00:01:51;;;;;;;0.68;0.40;;;;;;;11.61;100.00;100330.69;5075848;28;20031;-80
2023/10/08 00:04:19;;;;;;;1.35;0.40;;;;;;;11.59;100.00;100329.59;5076481;28;20036;-82
2023/10/08 00:06:46;;;;;;;2.13;0.40;;;;;;;11.59;100.00;100341.03;5075004;28;20100;-79
2023/10/08 00:09:12;;;;;;;1.25;0.60;;;;;;;11.60;100.00;100368.38;5076315;28;20192;-81
2023/10/08 00:11:40;;;;;;;1.10;0.50;;;;;;;11.62;100.00;100377.22;5076215;28;20082;-80
2023/10/08 00:14:10;;;;;;;1.33;0.68;;;;;;;11.65;100.00;100377.06;5076018;28;20051;-82
2023/10/08 00:16:39;;;;;;;0.65;0.60;;;;;;;11.68;100.00;100361.72;5042230;28;20052;-81
2023/10/08 00:19:15;;;;;;;0.68;0.50;;;;;;;11.69;100.00;100348.19;5058576;28;20052;-82
2023/10/08 00:21:41;;;;;;;0.80;0.50;;;;;;;11.67;100.00;100348.69;5075067;28;20058;-81
2023/10/08 00:24:09;;;;;;;1.40;0.43;;;;;;;11.69;100.00;100353.94;5075081;28;20375;-82
2023/10/08 00:26:39;;;;;;;0.40;0.30;;;;;;;11.70;100.00;100364.88;5075247;28;20093;-81
2023/10/08 00:29:22;;;;;;;0.73;0.52;;;;;;;11.76;100.00;100356.38;5074587;28;20111;-81
2023/10/08 00:31:49;;;;;;;;;;;;;;;11.77;100.00;100358.72;5074492;28;20056;-79
2023/10/08 00:34:19;;;;;;;1.10;0.40;;;;;;;11.75;100.00;100349.88;5074024;28;19962;-81
2023/10/08 00:36:47;;;;;;;0.50;0.50;;;;;;;11.79;100.00;100359.03;5074168;28;20029;-81
2023/10/08 00:39:16;;;;;;;1.38;0.68;;;;;;;11.81;100.00;100364.25;5075689;28;20405;-80
2023/10/08 00:41:47;;;;;;;0.38;0.38;;;;;;;11.83;100.00;100381.72;5073311;28;20140;-81
2023/10/08 00:44:16;;;;;;;1.15;0.63;;;;;;;11.83;100.00;100390.28;5075454;28;20036;-80
2023/10/08 00:46:55;;;;;;;1.70;0.43;;;;;;;11.79;100.00;100375.41;5073751;28;20082;-80
2023/10/08 00:49:24;;;;;;;1.35;0.70;;;;;;;11.80;100.00;100366.34;5074060;28;20032;-80
2023/10/08 00:57:29;;;;;;;1.02;0.57;;;;;;;11.67;100.00;100340.09;5074206;28;20098;-81
2023/10/08 01:00:21;;;;;;;1.75;0.57;;;;;;;11.61;100.00;100355.66;5059895;28;20125;-81
2023/10/08 01:03:00;;;;;;;0.50;0.50;;;;;;;11.57;100.00;100357.91;5073664;28;20013;-81
2023/10/08 01:05:42;;;;;;;0.95;0.47;;;;;;;11.50;100.00;100361.22;5074870;28;20041;-81
2023/10/08 01:08:12;;;;;;;1.00;0.50;;;;;;;11.56;100.00;100360.00;5073722;28;20036;-80
2023/10/08 01:10:43;;;;;;;2.22;0.55;;;;;;;11.51;100.00;100345.63;5073858;28;20032;-81
2023/10/08 01:13:15;;;;;;;1.17;0.70;;;;;;;11.64;100.00;100346.06;5073874;28;20028;-81
2023/10/08 01:15:55;;;;;;;1.25;0.43;;;;;;;11.63;100.00;100345.25;5075286;28;20448;-80
2023/10/08 01:18:30;;;;;;;3.05;0.55;;;;;;;11.65;100.00;100348.44;5070553;28;20555;-81
2023/10/08 01:21:08;;;;;;;1.52;0.60;;;;;;;11.70;100.00;100339.13;5073469;28;20040;-80
2023/10/08 01:23:40;;;;;;;3.25;1.00;;;;;;;11.71;100.00;100346.44;5073263;28;20041;-77
2023/10/08 01:26:12;;;;;;;2.70;1.08;;;;;;;11.74;100.00;100361.81;5073636;28;20028;-82
2023/10/08 01:28:47;;;;;;;1.98;0.95;;;;;;;11.78;100.00;100374.63;5072248;28;20401;-81
2023/10/08 01:31:17;;;;;;;1.25;0.80;;;;;;;11.78;100.00;100376.69;5080934;28;20084;-80
2023/10/08 01:33:56;;;;;;;0.65;0.60;;;;;;;11.80;100.00;100374.13;5082775;28;20394;-80
2023/10/08 01:36:31;;;;;;;1.77;0.65;;;;;;;11.77;100.00;100364.44;5083119;28;20047;-80
2023/10/08 01:39:03;;;;;;;1.13;0.68;;;;;;;11.76;100.00;100371.47;5080725;28;20056;-81
2023/10/08 01:41:40;;;;;;;0.47;0.47;;;;;;;11.75;100.00;100367.03;5076867;28;20084;-80
2023/10/08 01:44:22;;;;;;;2.10;0.65;;;;;;;11.75;100.00;100363.38;5076873;28;20044;-79
2023/10/08 01:46:50;;;;;;;4.68;1.60;;;;;;;11.74;100.00;100370.41;5059201;28;20098;-81
2023/10/08 01:49:16;;;;;;;0.40;0.40;;;;;;;11.64;100.00;100360.38;5071970;28;20024;-80
2023/10/08 01:51:49;;;;;;;1.15;0.98;;;;;;;11.75;100.00;100386.28;5074078;28;20115;-81
2023/10/08 01:54:35;;;;;;;1.80;0.77;;;;;;;11.68;100.00;100367.44;5073656;28;20032;-81
2023/10/08 01:57:03;;;;;;;2.25;0.60;;;;;;;11.57;100.00;100358.69;5080999;28;20048;-82
2023/10/08 01:59:31;;;;;;;1.63;0.60;;;;;;;11.65;100.00;100397.09;5094212;28;20028;-80
2023/10/08 02:01:57;;;;;;;0.70;0.60;;;;;;;11.66;100.00;100417.91;5076705;28;20111;-79
2023/10/08 02:04:22;;;;;;;1.05;0.68;;;;;;;11.69;100.00;100426.28;5075556;28;20484;-80
2023/10/08 02:06:48;;;;;;;3.30;0.80;;;;;;;11.65;100.00;100431.44;5076096;28;20035;-81
2023/10/08 02:09:15;;;;;;;1.77;0.80;;;;;;;11.57;100.00;100426.59;5094337;28;20044;-81
2023/10/08 02:11:53;;;;;;;3.70;0.80;;;;;;;11.51;100.00;100426.53;5076304;28;20031;-81
2023/10/08 02:14:31;;;;;;;3.50;0.80;;;;;;;11.47;100.00;100425.16;5093678;28;20077;-81
2023/10/08 02:17:04;;;;;;;2.90;0.93;;;;;;;11.43;100.00;100433.94;5093793;28;20063;-81
2023/10/08 02:19:29;;;;;;;4.18;0.90;;;;;;;11.39;100.00;100439.06;5060555;28;20028;-82
2023/10/08 02:21:57;;;;;;;0.95;0.50;;;;;;;11.33;100.00;100433.25;5094008;28;20023;-83
2023/10/08 02:24:24;;;;;;;3.25;0.93;;;;;;;11.36;100.00;100438.00;5077165;28;20403;-82
2023/10/08 02:26:54;;;;;;;1.30;0.80;;;;;;;11.28;100.00;100439.69;5094139;28;20055;-79
2023/10/08 02:29:25;;;;;;;1.85;0.73;;;;;;;11.37;100.00;100461.66;5093926;28;20035;-83
2023/10/08 02:31:50;;;;;;;4.68;1.08;;;;;;;11.38;100.00;100474.69;5059224;28;20485;-82
2023/10/08 02:34:16;;;;;;;1.05;0.63;;;;;;;11.36;100.00;100471.56;5076030;28;20040;-80
2023/10/08 02:36:42;;;;;;;1.90;0.80;;;;;;;11.35;100.00;100478.53;5076152;28;20244;-79
2023/10/08 02:39:25;;;;;;;0.80;0.45;;;;;;;11.32;100.00;100508.16;5094771;28;20481;-80
2023/10/08 02:41:54;;;;;;;0.52;0.30;;;;;;;11.25;100.00;100508.53;5094150;28;20020;-81
2023/10/08 02:44:22;;;;;;;1.70;0.50;;;;;;;11.22;100.00;100507.44;5075707;28;20036;-81
2023/10/08 02:46:49;;;;;;;4.43;0.68;;;;;;;11.23;100.00;100500.44;5094276;28;20024;-80
2023/10/08 02:49:22;;;;;;;0.90;0.50;;;;;;;11.20;100.00;100495.72;5059672;28;20039;-82
2023/10/08 02:51:50;;;;;;;0.65;0.50;;;;;;;11.20;100.00;100500.66;5059910;28;20024;-81
2023/10/08 02:54:22;;;;;;;0.88;0.40;;;;;;;11.18;100.00;100506.06;5059557;28;20473;-81
2023/10/08 02:56:52;;;;;;;0.85;0.50;;;;;;;11.12;100.00;100520.28;5072953;28;20060;-81
2023/10/08 02:59:18;;;;;;;3.05;0.60;;;;;;;11.05;100.00;100526.34;5074037;28;20032;-81
2023/10/08 03:01:47;;;;;;;3.00;0.98;;;;;;;10.99;100.00;100531.94;5072530;28;20120;-82
2023/10/08 03:04:19;;;;;;;4.20;0.60;;;;;;;10.93;100.00;100528.19;5072666;28;20032;-81
2023/10/08 03:06:55;;;;;;;2.30;1.05;;;;;;;10.91;100.00;100536.47;5076917;28;20119;-80
2023/10/08 03:09:31;;;;;;;2.42;0.70;;;;;;;10.87;100.00;100518.72;5076848;28;20035;-81
2023/10/08 03:12:08;;;;;;;2.20;0.60;;;;;;;10.78;100.00;100513.06;5076450;28;20420;-82
2023/10/08 03:14:47;;;;;;;3.05;0.55;;;;;;;10.77;100.00;100530.72;5077218;28;20036;-81
2023/10/08 03:17:20;;;;;;;1.63;0.65;;;;;;;10.75;100.00;100542.63;5077554;28;20028;-82
2023/10/08 03:19:49;;;;;;;2.17;0.70;;;;;;;10.72;100.00;100528.53;5078055;28;20420;-81
2023/10/08 03:22:19;;;;;;;2.28;0.75;;;;;;;10.66;100.00;100527.63;5075254;28;20063;-82
2023/10/08 03:24:48;;;;;;;3.08;0.70;;;;;;;10.67;100.00;100543.50;5076592;28;20457;-80
2023/10/08 03:27:20;;;;;;;2.53;0.77;;;;;;;10.59;100.00;100554.50;5076929;28;20024;-81
2023/10/08 03:29:47;;;;;;;0.82;0.75;;;;;;;10.61;100.00;100569.09;5077222;28;20023;-82
2023/10/08 03:32:18;;;;;;;3.25;0.70;;;;;;;10.57;100.00;100564.84;5076058;28;20035;-82
2023/10/08 03:34:49;;;;;;;1.27;0.70;;;;;;;10.53;100.00;100574.38;5076188;28;20030;-82
2023/10/08 03:37:29;;;;;;;2.83;1.33;;;;;;;10.49;100.00;100587.28;5075745;28;20025;-81
2023/10/08 03:46:24;;;;;;;1.50;0.50;;;;;;;10.50;100.00;100588.84;5075650;28;20047;-82
2023/10/08 03:48:52;;;;;;;1.60;0.73;;;;;;;10.48;100.00;100603.63;5071720;28;20040;-81
2023/10/08 03:51:20;;;;;;;4.30;1.10;;;;;;;10.48;100.00;100614.28;5074449;28;20016;-80
2023/10/08 03:56:37;;;;;;;3.03;1.02;;;;;;;10.49;100.00;100628.06;5077364;28;20428;-80
2023/10/08 03:59:12;;;;;;;3.42;0.70;;;;;;;10.49;100.00;100628.06;5096872;28;20039;-81
2023/10/08 04:01:40;;;;;;;2.25;1.15;;;;;;;10.42;100.00;100625.59;5078781;28;20404;-81
2023/10/08 04:04:12;;;;;;;2.03;0.90;;;;;;;10.40;100.00;100624.47;5079079;28;20040;-81
2023/10/08 04:06:38;;;;;;;4.05;1.67;;;;;;;10.41;100.00;100635.41;5079031;28;20149;-82
2023/10/08 04:11:35;;;;;;;2.22;0.93;;;;;;;10.40;100.00;100636.69;5097741;28;20067;-81
2023/10/08 04:14:02;;;;;;;3.75;0.80;;;;;;;10.43;100.00;100630.00;5062036;28;20047;-81
2023/10/08 04:16:36;;;;;;;1.50;0.70;;;;;;;10.43;100.00;100638.56;5078240;28;20039;-80
2023/10/08 04:19:07;;;;;;;4.03;0.70;;;;;;;10.40;100.00;100639.53;5080070;28;20023;-82
2023/10/08 04:21:34;;;;;;;4.78;1.05;;;;;;;10.42;100.00;100628.44;5095916;28;20047;-81
2023/10/08 04:24:06;;;;;;;1.15;0.82;;;;;;;10.43;100.00;100632.09;5096375;28;20024;-80
2023/10/08 04:26:34;;;;;;;1.48;0.85;;;;;;;10.47;100.00;100626.97;5063554;28;20035;-81
2023/10/08 04:29:09;;;;;;;3.63;1.02;;;;;;;10.46;100.00;100623.34;5095783;28;20047;-81
2023/10/08 04:31:38;;;;;;;3.85;1.17;;;;;;;10.45;100.00;100616.03;5096138;28;20043;-80
2023/10/08 04:34:15;;;;;;;3.45;1.55;;;;;;;10.43;100.00;100614.94;5060069;28;20064;-80
2023/10/08 04:36:45;;;;;;;4.82;1.30;;;;;;;10.49;100.00;100624.41;5062389;28;20043;-81
2023/10/08 04:39:15;;;;;;;4.45;1.20;;;;;;;10.50;100.00;100629.66;5061020;28;20426;-81
2023/10/08 04:41:43;;;;;;;3.70;1.30;;;;;;;10.51;100.00;100636.16;5061302;28;20036;-80
2023/10/08 04:44:25;;;;;;;6.90;1.38;;;;;;;10.53;100.00;100633.63;5077412;28;20590;-79
2023/10/08 04:46:54;;;;;;;9.38;1.77;;;;;;;10.51;100.00;100630.44;5095132;28;20102;-80
2023/10/08 04:49:28;;;;;;;6.50;1.52;;;;;;;10.49;100.00;100615.84;5077415;28;20020;-82
2023/10/08 04:52:25;;;;;;;4.32;1.20;;;;;;;10.49;100.00;100633.00;5094841;28;20022;-80
2023/10/08 04:54:51;;;;;;;3.25;1.20;;;;;;;10.46;100.00;100646.19;5094034;28;20028;-81
2023/10/08 04:57:30;;;;;;;5.30;1.13;;;;;;;10.47;100.00;100652.69;5094012;28;20118;-80
2023/10/08 04:59:57;;;;;;;5.53;1.13;;;;;;;10.47;100.00;100666.97;5095123;28;20099;-81
2023/10/08 05:02:49;;;;;;;2.15;1.40;;;;;;;10.48;100.00;100666.47;5095225;28;20370;-80
2023/10/08 05:13:01;;;;;;;6.53;2.63;;;;;;;10.52;100.00;100692.03;5076333;28;20032;-81
2023/10/08 05:15:37;;;;;;;4.80;1.33;;;;;;;10.52;100.00;100704.25;5063138;28;20503;-80
2023/10/08 05:28:46;;;;;;;8.43;1.88;;;;;;;10.62;100.00;100730.72;5078176;28;20099;-80
2023/10/08 05:34:17;;;;;;;4.32;1.65;;;;;;;10.62;100.00;100745.03;5094766;28;20488;-81
2023/10/08 05:42:16;;;;;;;2.63;1.35;;;;;;;10.69;100.00;100758.16;5094244;28;20032;-81
2023/10/08 05:55:47;;;;;;;7.93;1.73;;;;;;;10.88;100.00;100793.97;5013915;28;20460;-79
2023/10/08 05:58:24;;;;;;;6.25;2.72;;;;;;;10.95;100.00;100800.13;5025633;28;20064;-80
2023/10/08 06:01:26;;;;;;;7.20;1.85;;;;;;;11.05;100.00;100809.47;5029691;28;20048;-80
2023/10/08 06:04:02;;;;;;;5.43;2.53;;;;;;;11.11;100.00;100816.16;5015834;28;20072;-79
2023/10/08 06:06:47;;;;;;;6.28;1.92;;;;;;;11.15;100.00;100824.53;5049926;28;20060;-78
2023/10/08 06:12:06;;;;;;;9.10;2.85;;;;;;;11.25;100.00;100843.25;5094096;28;20032;-79
2023/10/08 06:14:52;;;;;;;5.28;2.95;;;;;;;11.30;100.00;100856.88;5093728;28;20055;-81
2023/10/08 06:17:34;;;;;;;6.90;3.45;;;;;;;11.33;100.00;100844.47;5078836;28;20028;-81
2023/10/08 06:20:09;;;;;;;5.72;3.15;;;;;;;11.47;100.00;100858.03;5060662;28;20090;-80
2023/10/08 06:22:37;;;;;;;4.50;2.85;;;;;;;11.55;100.00;100847.06;5044767;28;20039;-79
2023/10/08 06:25:18;;;;;;;11.32;3.33;;;;;;;11.43;100.00;100830.88;5075850;28;20032;-81
2023/10/08 06:27:57;;;;;;;7.55;4.00;;;;;;;11.67;100.00;100860.31;5094324;28;20044;-80
2023/10/08 06:30:40;;;;;;;5.97;3.10;;;;;;;11.79;100.00;100860.09;5093742;28;20188;-80
2023/10/08 06:33:09;;;;;;;6.05;2.90;;;;;;;11.92;100.00;100864.75;5075696;28;20039;-82
2023/10/08 06:35:36;;;;;;;7.80;2.83;;;;;;;12.03;100.00;100871.50;5058800;28;20050;-78
2023/10/08 06:38:07;;;;;;;9.05;4.00;;;;;;;12.18;100.00;100875.22;5093905;28;20030;-78
2023/10/08 06:40:42;;;;;;;7.68;3.38;;;;;;;12.37;100.00;100889.41;5062010;28;20028;-88
2023/10/08 06:43:21;;;;;;;12.27;3.70;;;;;;;12.50;100.00;100893.59;5099007;28;20077;-83
2023/10/08 06:45:47;;;;;;;11.38;3.78;;;;;;;12.63;100.00;100899.84;5098569;28;20024;-82
2023/10/08 06:48:20;;;;;;;10.68;3.78;;;;;;;12.75;100.00;100906.56;5080734;28;20032;-83
2023/10/08 06:50:57;;;;;;;6.45;3.50;;;;;;;12.79;100.00;100907.16;5065275;28;20074;-83
2023/10/08 06:53:23;;;;;;;9.05;3.78;;;;;;;12.73;100.00;100891.94;5064797;28;20024;-82
2023/10/08 06:55:55;;;;;;;13.63;4.25;;;;;;;13.03;100.00;100907.88;5080082;28;20105;-81
2023/10/08 06:58:34;;;;;;;11.20;3.72;;;;;;;13.48;100.00;100917.19;5060080;28;20045;-82
2023/10/08 07:01:04;;;;;;;6.75;3.42;;;;;;;14.00;100.00;100932.59;5076647;28;20046;-81
2023/10/08 07:03:38;;;;;;;5.95;2.97;;;;;;;14.23;100.00;100930.84;5076163;28;20031;-81
2023/10/08 07:06:16;;;;;;;6.07;3.28;;;;;;;14.62;100.00;100928.47;5079071;28;20028;-81
2023/10/08 07:08:52;;;;;;;8.05;2.85;;;;;;;14.92;100.00;100937.66;5076517;28;20035;-80
2023/10/08 07:11:20;;;;;;;6.63;2.50;;;;;;;15.07;100.00;100939.09;5081346;28;20113;-81
2023/10/08 07:13:45;;;;;;;4.90;2.45;;;;;;;15.24;100.00;100942.94;5078613;28;20024;-81
2023/10/08 07:16:17;;;;;;;4.65;2.78;;;;;;;15.60;100.00;100944.31;5077445;28;20039;-81
2023/10/08 07:18:52;;;;;;;8.82;2.90;;;;;;;16.38;100.00;100943.97;5076463;28;20020;-80
2023/10/08 07:21:28;;;;;;;9.82;4.30;;;;;;;17.25;100.00;100961.25;5075428;28;20048;-82
2023/10/08 07:23:59;;;;;;;4.82;2.80;;;;;;;18.02;100.00;100957.59;5076057;28;20078;-78
2023/10/08 07:26:40;;;;;;;5.03;2.22;;;;;;;18.96;100.00;100962.22;5074781;28;20032;-79
2023/10/08 07:29:11;;;;;;;3.55;2.67;;;;;;;19.71;100.00;100959.78;5059041;28;20028;-82
2023/10/08 07:31:42;;;;;;;6.17;2.93;;;;;;;20.33;100.00;100951.25;5075395;28;20028;-81
2023/10/08 07:36:54;;;;;;;3.53;1.60;;;;;;;21.33;100.00;100969.44;5075460;28;20116;-80
2023/10/08 07:41:55;;;;;;;2.42;1.70;;;;;;;21.64;100.00;100969.47;5075554;28;20481;-85
2023/10/08 07:44:22;;;;;;;2.95;1.67;;;;;;;21.58;100.00;100982.56;5074446;28;20099;-86
2023/10/08 07:46:56;;;;;;;4.00;1.50;;;;;;;21.54;100.00;100974.13;5076475;28;20554;-85
2023/10/08 07:49:30;;;;;;;4.30;1.60;;;;;;;21.44;100.00;100989.59;5076016;28;20032;-85
2023/10/08 07:52:01;;;;;;;3.00;1.27;;;;;;;21.53;100.00;100978.38;5079244;28;20116;-84
2023/10/08 07:54:34;;;;;;;3.10;1.30;;;;;;;21.64;100.00;100989.03;5078613;28;20382;-85
2023/10/08 07:57:26;;;;;;;2.30;1.20;;;;;;;21.57;100.00;100992.63;4945548;28;3972264;-84
2023/10/08 08:00:25;;;;;;;4.63;1.73;;;;;;;21.58;100.00;100992.03;5095518;28;20043;-85
2023/10/08 08:02:53;;;;;;;1.98;1.63;;;;;;;21.63;100.00;100981.69;5097497;28;20039;-86
2023/10/08 08:05:40;;;;;;;2.65;1.55;;;;;;;21.76;100.00;100987.53;5081950;28;20097;-85
2023/10/08 08:08:17;;;;;;;6.00;1.50;;;;;;;21.89;100.00;100992.59;5097010;28;20032;-83
2023/10/08 08:10:47;;;;;;;3.97;1.52;;;;;;;22.05;100.00;100997.31;5099039;28;20043;-88
2023/10/08 08:13:20;;;;;;;2.15;0.98;;;;;;;22.41;100.00;101003.56;5082465;28;20047;-86
2023/10/08 08:15:50;;;;;;;3.33;1.05;;;;;;;22.32;100.00;101009.84;5102092;28;20032;-86
2023/10/08 08:18:22;;;;;;;2.55;1.20;;;;;;;21.72;100.00;101022.00;5081198;28;20035;-86
2023/10/08 08:20:49;;;;;;;3.85;1.40;;;;;;;21.33;100.00;101027.59;5097666;28;20032;-83
2023/10/08 08:23:16;;;;;;;3.65;1.10;;;;;;;21.08;100.00;101033.50;5099473;28;20115;-87
2023/10/08 08:25:46;;;;;;;4.43;1.13;;;;;;;20.91;100.00;101037.97;5085935;28;20070;-87
2023/10/08 08:28:24;;;;;;;2.33;1.15;;;;;;;20.78;100.00;101039.44;5066852;28;20032;-87
2023/10/08 08:31:13;;;;;;;3.47;1.58;;;;;;;20.81;100.00;101041.25;5068236;28;20369;-88
2023/10/08 08:36:46;;;;;;;2.95;0.95;;;;;;;20.70;100.00;101044.28;5016686;28;20034;-88
2023/10/08 08:39:32;;;;;;;3.20;0.70;;;;;;;20.75;100.00;101054.25;5000929;28;20050;-88
2023/10/08 08:42:04;;;;;;;1.08;0.90;;;;;;;20.64;92.90;101049.38;5022276;28;20445;-90
2023/10/08 08:44:31;;;;;;;2.30;1.40;;;;;;;20.37;95.35;101048.34;5011263;28;20518;-88
2023/10/08 08:46:59;;;;;;;1.63;0.98;;;;;;;20.24;89.74;101059.03;5065075;28;20024;-86
2023/10/08 08:49:25;;;;;;;1.17;0.70;;;;;;;19.94;91.19;101056.94;5068854;28;20032;-87
2023/10/08 08:51:55;;;;;;;2.25;0.60;;;;;;;19.88;97.61;101064.06;5084177;28;20032;-88
2023/10/08 08:54:24;;;;;;;1.77;0.80;;;;;;;19.61;87.40;101059.28;5094077;28;20020;-85
2023/10/08 08:56:51;;;;;;;2.08;1.27;;;;;;;19.35;90.81;101063.41;5103572;28;20050;-87
2023/10/08 08:59:17;;;;;;;3.70;1.23;;;;;;;19.11;90.53;101060.38;5116513;28;20024;-85
2023/10/08 09:01:44;;;;;;;1.88;0.60;;;;;;;18.84;91.70;101036.00;5110129;28;20035;-84
2023/10/08 09:04:11;;;;;;;3.38;1.08;;;;;;;19.03;95.29;101060.13;5083349;28;20024;-87
2023/10/08 09:06:37;;;;;;;1.65;0.90;;;;;;;19.00;100.00;101069.91;5084807;28;20530;-84
2023/10/08 09:09:22;;;;;;;1.80;0.88;;;;;;;18.93;98.47;101075.44;5080415;28;20062;-86
2023/10/08 09:11:54;;;;;;;1.10;0.90;;;;;;;18.63;92.62;101084.75;5095954;28;20050;-85
2023/10/08 09:14:25;;;;;;;3.00;1.10;;;;;;;18.27;93.26;101080.88;5047527;28;20507;-88
2023/10/08 09:16:56;;;;;;;1.45;0.90;;;;;;;17.99;94.06;101087.97;5079827;28;20103;-85
2023/10/08 09:19:25;;;;;;;1.75;0.68;;;;;;;17.79;90.80;101091.91;5096693;28;20024;-82
2023/10/08 09:22:23;;;;;;;1.20;0.70;;;;;;;17.58;92.46;101100.06;5077159;28;20028;-86
2023/10/08 09:24:49;;;;;;;1.17;0.70;;;;;;;17.56;99.72;101096.91;5054261;28;20040;-84
2023/10/08 09:27:15;;;;;;;1.33;0.70;;;;;;;17.55;90.89;101095.31;5059132;28;20033;-84
2023/10/08 09:29:41;;;;;;;3.42;0.70;;;;;;;17.60;93.67;101105.31;5094690;28;20064;-84
2023/10/08 09:32:23;;;;;;;1.98;0.50;;;;;;;17.61;88.87;101099.00;5094813;28;20480;-78
2023/10/08 09:34:57;;;;;;;1.85;0.60;;;;;;;17.70;85.00;101119.00;5094897;28;20020;-82
2023/10/08 09:37:24;;;;;;;0.57;0.50;;;;;;;17.67;76.08;101102.69;5094191;28;20433;-86
2023/10/08 09:39:52;;;;;;;3.08;0.50;;;;;;;17.60;68.56;101111.88;5094719;28;20054;-81
2023/10/08 09:42:22;;;;;;;2.28;0.60;;;;;;;17.61;77.78;101127.91;5094741;28;20100;-83
2023/10/08 09:44:49;;;;;;;1.85;0.60;;;;;;;17.68;78.29;101132.41;5111819;28;20058;-83
2023/10/08 09:47:23;;;;;;;2.47;0.65;;;;;;;17.74;77.95;101133.19;5094596;28;20042;-83
2023/10/08 09:50:02;;;;;;;2.35;0.40;;;;;;;17.80;76.99;101136.88;5094570;28;20024;-83
2023/10/08 09:52:34;;;;;;;2.38;0.43;;;;;;;17.81;75.36;101136.34;5097859;28;20040;-82
2023/10/08 09:55:20;;;;;;;2.58;0.57;;;;;;;17.60;73.52;101142.88;5080607;28;20435;-81
2023/10/08 09:57:50;;;;;;;3.15;0.70;;;;;;;17.63;70.77;101151.31;5096225;28;20051;-81
2023/10/08 10:00:30;;;;;;;2.25;0.57;;;;;;;17.60;77.28;101166.00;5114858;28;20068;-85
2023/10/08 10:03:02;;;;;;;2.20;0.60;;;;;;;17.62;75.71;101167.06;5098094;28;20028;-83
2023/10/08 10:05:52;;;;;;;5.13;3.03;;;;;;;17.60;77.28;101175.47;5061105;28;20047;-83
2023/10/08 10:08:28;;;;;;;2.55;0.70;;;;;;;17.64;80.27;101170.22;5090882;28;20028;-88
2023/10/08 10:11:02;;;;;;;1.10;0.70;;;;;;;17.65;80.48;101168.13;5077980;28;20027;-85
2023/10/08 10:13:47;;;;;;;1.80;0.52;;;;;;;17.54;70.66;101171.75;5098871;28;20022;-82
2023/10/08 10:16:18;;;;;;;1.30;0.55;;;;;;;17.40;73.28;101178.53;5080362;28;20028;-80
2023/10/08 10:18:48;;;;;;;1.00;0.60;;;;;;;17.33;73.27;101174.03;5112000;28;20012;-83
2023/10/08 10:21:16;;;;;;;0.82;0.60;;;;;;;17.32;71.52;101180.34;5081359;28;20024;-82
2023/10/08 10:23:44;;;;;;;1.70;0.68;;;;;;;17.26;69.99;101183.19;5116613;28;20020;-87
2023/10/08 10:26:40;;;;;;;3.22;0.80;;;;;;;17.20;70.65;101185.25;5117480;28;20072;-81
2023/10/08 10:29:15;;;;;;;3.30;0.68;;;;;;;17.14;74.01;101184.44;5118179;28;20145;-82
2023/10/08 10:31:46;;;;;;;2.67;0.75;;;;;;;17.06;70.71;101185.47;5117182;28;20032;-83
2023/10/08 10:34:20;;;;;;;1.73;0.47;;;;;;;16.92;73.03;101188.00;5104889;28;20060;-84
2023/10/08 10:36:54;;;;;;;1.80;0.68;;;;;;;16.82;72.72;101195.31;5079639;28;20035;-81
2023/10/08 10:39:34;;;;;;;2.05;0.70;;;;;;;16.69;70.84;101189.19;5080262;28;20028;-85
2023/10/08 10:42:01;;;;;;;2.25;0.60;;;;;;;16.60;71.42;101195.13;5098378;28;20035;-85
2023/10/08 10:44:41;;;;;;;2.75;0.55;;;;;;;16.55;74.01;101199.56;5079188;28;20118;-81
2023/10/08 10:52:53;;;;;;;0.40;0.40;;;;;;;16.35;71.50;101193.09;5094893;28;20166;-80
2023/10/08 10:55:22;;;;;;;3.05;0.45;;;;;;;16.25;70.79;101188.81;5094918;28;20024;-81
2023/10/08 10:58:11;;;;;;;0.63;0.35;;;;;;;16.17;70.99;101194.25;5073479;28;20139;-83
2023/10/08 11:03:23;;;;;;;1.20;0.40;;;;;;;15.99;69.97;101201.16;5073016;28;20032;-85
2023/10/08 11:06:05;;;;;;;0.57;0.40;;;;;;;15.94;68.16;101189.56;5073007;28;20036;-83
2023/10/08 11:08:34;;;;;;;;;;;;;;;15.85;64.24;101183.97;5057189;28;20033;-81
2023/10/08 11:11:05;;;;;;;1.67;0.47;;;;;;;15.77;67.55;101198.03;5074095;28;19908;-86
2023/10/08 11:13:39;;;;;;;0.50;0.50;;;;;;;15.66;69.95;101187.16;5075300;28;20032;-87
2023/10/08 11:16:08;;;;;;;2.42;0.88;;;;;;;15.73;71.71;101197.47;5075649;28;20064;-86
2023/10/08 11:18:42;;;;;;;1.27;0.40;;;;;;;15.75;72.85;101199.84;5073551;28;20377;-82
2023/10/08 11:21:13;;;;;;;0.70;0.32;;;;;;;15.65;68.80;101193.47;5073261;28;20070;-81
2023/10/08 11:23:58;;;;;;;4.55;0.73;;;;;;;15.64;67.96;101186.09;5073276;28;20025;-82
2023/10/08 11:26:38;;;;;;;1.90;0.73;;;;;;;15.50;60.07;101189.84;5055000;28;20041;-84
2023/10/08 11:29:06;;;;;;;1.10;0.40;;;;;;;15.37;63.89;101178.69;5073499;28;20036;-82
2023/10/08 11:31:35;;;;;;;0.88;0.68;;;;;;;15.41;66.29;101196.56;5062699;28;20386;-84
2023/10/08 11:34:13;;;;;;;1.30;0.57;;;;;;;15.45;68.63;101187.69;5084316;28;20025;-85
2023/10/08 11:36:49;;;;;;;1.05;0.50;;;;;;;15.48;69.25;101183.78;5079156;28;20107;-84
2023/10/08 11:39:30;;;;;;;1.75;0.70;;;;;;;15.38;64.20;101182.34;5081847;28;20081;-86
2023/10/08 11:45:17;;;;;;;0.80;0.50;;;;;;;15.20;64.47;101177.69;5072603;28;20505;-90
2023/10/08 11:47:48;;;;;;;1.50;0.47;;;;;;;15.23;67.08;101191.88;5075889;28;20418;-87
2023/10/08 11:50:19;;;;;;;0.40;0.40;;;;;;;15.24;66.22;101181.16;5094032;28;20035;-87
2023/10/08 11:52:46;;;;;;;0.47;0.30;;;;;;;15.32;64.44;101190.91;5082297;28;20037;-88
2023/10/08 11:55:18;;;;;;;1.38;0.60;;;;;;;15.27;60.87;101183.00;5065704;28;20035;-86
2023/10/08 11:58:17;;;;;;;0.60;0.50;;;;;;;15.20;61.73;101190.00;5097743;28;20036;-86
2023/10/08 12:00:45;;;;;;;1.42;0.50;;;;;;;15.04;60.49;101179.06;5091337;28;20111;-86
2023/10/08 12:03:21;;;;;;;2.22;0.50;;;;;;;14.92;64.11;101162.16;5071545;28;20039;-90
2023/10/08 12:05:58;;;;;;;1.77;0.68;;;;;;;14.97;69.73;101178.72;5105695;28;20008;-89
2023/10/08 12:08:30;;;;;;;0.93;0.47;;;;;;;15.06;71.95;101190.06;5091819;28;20063;-90
2023/10/08 12:11:00;;;;;;;1.23;0.63;;;;;;;15.09;71.20;101180.44;5102253;28;20583;-91
2023/10/08 12:13:28;;;;;;;0.73;0.20;;;;;;;15.16;68.32;101198.06;5114331;28;20036;-88
2023/10/08 12:19:01;;;;;;;0.75;0.40;;;;;;;14.94;60.48;101168.19;5027017;28;20607;-84
2023/10/08 12:21:30;;;;;;;1.20;0.55;;;;;;;14.95;61.81;101184.97;5061195;28;20174;-88
2023/10/08 12:23:57;;;;;;;1.42;0.80;;;;;;;14.99;60.41;101184.72;5076627;28;20045;-81
2023/10/08 12:26:24;;;;;;;1.60;0.65;;;;;;;14.87;62.41;101175.16;5074621;28;20039;-82
2023/10/08 12:28:50;;;;;;;1.90;0.60;;;;;;;14.95;63.83;101184.16;5074402;28;20485;-81
2023/10/08 12:31:34;;;;;;;2.95;0.73;;;;;;;14.90;66.05;101179.13;5058240;28;20028;-83
2023/10/08 12:34:00;;;;;;;2.25;0.70;;;;;;;14.83;66.60;101177.44;5058086;28;20072;-83
2023/10/08 12:36:36;;;;;;;1.70;0.60;;;;;;;14.89;68.31;101189.84;5075100;28;20086;-91
2023/10/08 12:39:17;;;;;;;0.85;0.50;;;;;;;14.96;69.45;101177.13;5059246;28;20024;-87
2023/10/08 12:41:45;;;;;;;1.08;0.43;;;;;;;15.11;69.12;101187.28;5077507;28;20479;-93
2023/10/08 12:44:11;;;;;;;0.50;0.50;;;;;;;15.28;65.88;101190.34;5079009;28;20042;-87
2023/10/08 12:46:38;;;;;;;3.22;0.50;;;;;;;15.30;60.19;101196.41;5076701;28;20100;-87
2023/10/08 12:49:14;;;;;;;1.65;0.30;;;;;;;15.27;60.59;101192.44;5076863;28;20488;-83
2023/10/08 12:51:41;;;;;;;2.10;0.60;;;;;;;15.24;62.09;101190.56;5059536;28;20102;-89
2023/10/08 12:54:08;;;;;;;2.25;0.43;;;;;;;15.29;63.33;101189.06;5077270;28;20024;-86
2023/10/08 12:56:54;;;;;;;0.90;0.50;;;;;;;15.30;63.57;101182.00;5077573;28;20033;-84
2023/10/08 12:59:33;;;;;;;0.73;0.52;;;;;;;15.31;65.82;101195.13;5096422;28;20515;-86
2023/10/08 13:02:07;;;;;;;0.80;0.55;;;;;;;15.31;65.86;101188.56;5097228;28;20060;-88
2023/10/08 13:04:34;;;;;;;3.15;0.40;;;;;;;15.26;65.36;101187.22;5097224;28;20050;-83
2023/10/08 13:07:02;;;;;;;2.63;0.60;;;;;;;15.22;65.84;101184.53;5097218;28;20103;-85